createdAt,value
2019-04-21T00:00:19.250Z,0.00
2019-04-21T00:01:18.387Z,0.00
2019-04-21T00:02:24.241Z,0.00
2019-04-21T00:03:25.838Z,0.00
2019-04-21T00:04:32.164Z,0.00
2019-04-21T00:05:38.490Z,0.00
2019-04-21T00:06:43.473Z,0.00
2019-04-21T00:07:37.748Z,0.00
2019-04-21T00:08:57.937Z,0.00
2019-04-21T00:09:41.074Z,0.00
2019-04-21T00:10:40.098Z,0.00
2019-04-21T00:11:40.852Z,0.00
2019-04-21T00:12:35.642Z,0.00
2019-04-21T00:13:36.739Z,0.00
2019-04-21T00:14:30.351Z,0.00
2019-04-21T00:15:28.935Z,0.00
2019-04-21T00:16:29.108Z,0.00
2019-04-21T00:17:21.773Z,0.00
2019-04-21T00:18:19.105Z,0.00
2019-04-21T00:19:21.555Z,0.00
2019-04-21T00:20:26.944Z,0.00
2019-04-21T00:21:26.499Z,0.00
2019-04-21T00:22:30.373Z,0.00
2019-04-21T00:23:37.489Z,0.00
2019-04-21T00:24:29.004Z,0.00
2019-04-21T00:25:32.160Z,0.00
2019-04-21T00:26:36.465Z,0.00
2019-04-21T00:27:33.344Z,0.00
2019-04-21T00:28:42.584Z,0.00
2019-04-21T00:30:39.893Z,0.00
2019-04-21T00:31:34.116Z,0.00
2019-04-21T00:32:33.383Z,0.00
2019-04-21T00:33:25.851Z,0.00
2019-04-21T00:34:19.432Z,0.00
2019-04-21T00:35:21.036Z,0.00
2019-04-21T00:36:25.267Z,0.00
2019-04-21T00:37:31.380Z,0.00
2019-04-21T00:38:56.446Z,0.00
2019-04-21T00:39:51.965Z,0.00
2019-04-21T00:40:46.103Z,0.00
2019-04-21T00:41:38.106Z,0.00
2019-04-21T00:42:34.319Z,0.00
2019-04-21T00:43:32.940Z,0.00
2019-04-21T00:44:29.399Z,0.00
2019-04-21T00:45:32.545Z,0.00
2019-04-21T00:46:35.110Z,0.00
2019-04-21T00:47:38.804Z,0.00
2019-04-21T00:48:45.908Z,0.00
2019-04-21T00:49:34.355Z,0.00
2019-04-21T00:50:53.231Z,0.00
2019-04-21T00:51:49.814Z,0.00
2019-04-21T00:52:52.573Z,0.00
2019-04-21T00:53:45.563Z,0.00
2019-04-21T00:54:51.982Z,0.00
2019-04-21T00:55:46.689Z,0.00
2019-04-21T00:56:46.694Z,0.00
2019-04-21T00:57:44.955Z,0.00
2019-04-21T00:58:39.606Z,0.00
2019-04-21T00:59:43.307Z,0.00
2019-04-21T01:00:38.563Z,0.00
2019-04-21T01:01:40.656Z,0.00
2019-04-21T01:02:48.513Z,0.00
2019-04-21T01:03:38.453Z,0.00
2019-04-21T01:04:42.866Z,0.00
2019-04-21T01:05:42.782Z,0.00
2019-04-21T01:06:43.468Z,0.00
2019-04-21T01:07:37.061Z,0.00
2019-04-21T01:08:39.984Z,0.00
2019-04-21T01:09:34.253Z,0.00
2019-04-21T01:10:33.575Z,0.00
2019-04-21T01:11:40.233Z,0.00
2019-04-21T01:12:37.387Z,0.00
2019-04-21T01:13:41.490Z,0.00
2019-04-21T01:14:45.611Z,0.00
2019-04-21T01:15:43.553Z,0.00
2019-04-21T01:16:43.879Z,0.00
2019-04-21T01:17:40.651Z,0.00
2019-04-21T01:18:38.064Z,0.00
2019-04-21T01:19:38.800Z,0.00
2019-04-21T01:20:18.221Z,0.00
2019-04-21T01:21:16.598Z,0.00
2019-04-21T01:22:16.587Z,0.00
2019-04-21T01:23:16.776Z,0.00
2019-04-21T01:24:21.923Z,0.00
2019-04-21T01:25:25.863Z,0.00
2019-04-21T01:26:31.098Z,0.00
2019-04-21T01:27:40.638Z,0.00
2019-04-21T01:28:37.646Z,0.00
2019-04-21T01:29:44.060Z,0.00
2019-04-21T01:30:41.498Z,0.00
2019-04-21T01:31:36.327Z,0.00
2019-04-21T01:32:42.706Z,0.00
2019-04-21T01:33:39.691Z,0.00
2019-04-21T01:34:39.309Z,0.00
2019-04-21T01:35:40.265Z,0.00
2019-04-21T01:36:37.045Z,0.00
2019-04-21T01:37:44.166Z,0.00
2019-04-21T01:38:45.330Z,0.00
2019-04-21T01:39:48.506Z,0.00
2019-04-21T01:40:41.014Z,0.00
2019-04-21T01:41:42.965Z,0.00
2019-04-21T01:42:41.138Z,0.00
2019-04-21T01:43:33.497Z,0.00
2019-04-21T01:44:41.866Z,0.00
2019-04-21T01:45:37.042Z,0.00
2019-04-21T01:46:36.364Z,0.00
2019-04-21T01:47:32.704Z,0.00
2019-04-21T01:48:34.467Z,0.00
2019-04-21T01:49:29.673Z,0.00
2019-04-21T01:50:36.605Z,0.00
2019-04-21T01:51:36.747Z,0.00
2019-04-21T01:52:46.203Z,0.00
2019-04-21T01:53:43.506Z,0.00
2019-04-21T01:54:40.434Z,0.00
2019-04-21T01:55:36.806Z,0.00
2019-04-21T01:56:35.651Z,0.00
2019-04-21T01:57:34.681Z,0.00
2019-04-21T01:58:29.480Z,0.00
2019-04-21T01:59:33.708Z,0.00
2019-04-21T02:00:32.807Z,0.00
2019-04-21T02:01:54.165Z,0.00
2019-04-21T02:02:36.379Z,0.00
2019-04-21T02:04:45.346Z,0.00
2019-04-21T02:05:43.947Z,0.00
2019-04-21T02:06:41.402Z,0.00
2019-04-21T02:07:39.877Z,0.00
2019-04-21T02:08:34.537Z,0.00
2019-04-21T02:09:38.414Z,0.00
2019-04-21T02:10:40.282Z,0.00
2019-04-21T02:11:48.618Z,0.00
2019-04-21T02:12:38.067Z,0.00
2019-04-21T02:13:35.508Z,0.00
2019-04-21T02:14:45.746Z,0.00
2019-04-21T02:15:42.317Z,0.00
2019-04-21T02:16:40.624Z,0.00
2019-04-21T02:17:34.173Z,0.00
2019-04-21T02:18:33.351Z,0.00
2019-04-21T02:19:32.597Z,0.00
2019-04-21T02:20:29.437Z,0.00
2019-04-21T02:21:31.839Z,0.00
2019-04-21T02:22:46.176Z,0.00
2019-04-21T02:24:42.498Z,0.00
2019-04-21T02:25:38.446Z,0.00
2019-04-21T02:26:42.898Z,0.00
2019-04-21T02:27:36.477Z,0.00
2019-04-21T02:28:42.821Z,0.00
2019-04-21T02:29:41.558Z,0.00
2019-04-21T02:31:45.332Z,0.00
2019-04-21T02:32:49.547Z,0.00
2019-04-21T02:33:57.489Z,0.00
2019-04-21T02:34:49.142Z,0.00
2019-04-21T02:36:15.567Z,0.00
2019-04-21T02:36:52.978Z,0.00
2019-04-21T02:37:54.876Z,0.00
2019-04-21T02:39:48.973Z,0.00
2019-04-21T02:41:51.208Z,0.00
2019-04-21T02:43:07.519Z,0.00
2019-04-21T02:43:52.456Z,0.00
2019-04-21T02:44:52.174Z,0.00
2019-04-21T02:45:47.115Z,0.00
2019-04-21T02:46:42.132Z,0.00
2019-04-21T02:48:11.196Z,0.00
2019-04-21T02:49:56.014Z,0.00
2019-04-21T02:53:03.571Z,0.00
2019-04-21T02:55:56.564Z,0.00
2019-04-21T02:56:59.107Z,0.00
2019-04-21T02:57:51.903Z,0.00
2019-04-21T02:58:57.006Z,0.00
2019-04-21T02:59:55.822Z,0.00
2019-04-21T03:00:44.447Z,0.00
2019-04-21T03:02:52.566Z,0.00
2019-04-21T03:03:49.186Z,0.00
2019-04-21T03:05:01.718Z,0.00
2019-04-21T03:06:59.935Z,0.00
2019-04-21T03:07:55.407Z,0.00
2019-04-21T03:08:56.687Z,0.00
2019-04-21T03:09:44.485Z,0.00
2019-04-21T03:11:52.311Z,0.00
2019-04-21T03:12:53.034Z,0.00
2019-04-21T03:13:46.979Z,0.00
2019-04-21T03:14:59.569Z,0.00
2019-04-21T03:15:53.221Z,0.00
2019-04-21T03:16:49.328Z,0.00
2019-04-21T03:17:49.928Z,0.00
2019-04-21T03:18:54.243Z,0.00
2019-04-21T03:19:59.869Z,0.00
2019-04-21T03:20:42.127Z,0.00
2019-04-21T03:21:48.347Z,0.00
2019-04-21T03:23:58.346Z,0.00
2019-04-21T03:25:20.483Z,0.00
2019-04-21T03:25:53.443Z,0.00
2019-04-21T03:31:11.532Z,0.00
2019-04-21T03:35:14.909Z,0.00
2019-04-21T03:36:30.018Z,0.00
2019-04-21T03:37:47.025Z,0.00
2019-04-21T03:38:40.500Z,0.00
2019-04-21T03:39:56.781Z,0.00
2019-04-21T03:40:39.399Z,0.00
2019-04-21T03:42:00.189Z,0.00
2019-04-21T03:44:08.023Z,0.00
2019-04-21T03:44:45.714Z,0.00
2019-04-21T03:45:42.298Z,0.00
2019-04-21T03:46:47.743Z,0.00
2019-04-21T03:47:43.479Z,0.00
2019-04-21T03:49:04.742Z,0.00
2019-04-21T03:50:47.263Z,0.00
2019-04-21T03:51:45.805Z,0.00
2019-04-21T03:55:01.565Z,0.00
2019-04-21T03:55:53.165Z,0.00
2019-04-21T03:57:06.032Z,0.00
2019-04-21T03:59:52.341Z,0.00
2019-04-21T04:01:50.643Z,0.00
2019-04-21T04:02:55.269Z,0.00
2019-04-21T04:04:44.910Z,0.00
2019-04-21T04:05:59.669Z,0.00
2019-04-21T04:08:57.533Z,0.00
2019-04-21T04:10:58.708Z,0.00
2019-04-21T04:11:58.449Z,0.00
2019-04-21T04:14:20.351Z,0.00
2019-04-21T04:14:44.186Z,0.00
2019-04-21T04:17:40.796Z,0.00
2019-04-21T04:20:48.059Z,5.62
2019-04-21T04:22:09.162Z,5.62
2019-04-21T04:22:49.681Z,5.62
2019-04-21T04:25:03.479Z,5.62
2019-04-21T04:25:53.657Z,5.62
2019-04-21T04:26:45.508Z,5.62
2019-04-21T04:28:02.147Z,5.62
2019-04-21T04:29:59.334Z,11.25
2019-04-21T04:30:45.959Z,11.25
2019-04-21T04:32:59.088Z,16.88
2019-04-21T04:34:09.875Z,16.88
2019-04-21T04:34:49.933Z,16.88
2019-04-21T04:36:58.447Z,22.50
2019-04-21T04:38:56.309Z,22.50
2019-04-21T04:39:48.494Z,22.50
2019-04-21T04:40:51.246Z,28.12
2019-04-21T04:41:56.830Z,28.12
2019-04-21T04:43:44.633Z,33.75
2019-04-21T04:45:48.201Z,39.38
2019-04-21T04:48:57.309Z,45.00
2019-04-21T04:50:50.057Z,50.62
2019-04-21T04:51:56.718Z,50.62
2019-04-21T04:53:43.951Z,56.25
2019-04-21T04:56:48.201Z,61.88
2019-04-21T04:57:55.029Z,67.50
2019-04-21T04:59:18.619Z,67.50
2019-04-21T05:00:52.130Z,73.12
2019-04-21T05:01:53.329Z,78.75
2019-04-21T05:02:40.307Z,78.75
2019-04-21T05:03:50.976Z,84.38
2019-04-21T05:05:48.816Z,95.62
2019-04-21T05:07:52.333Z,101.25
2019-04-21T05:09:47.105Z,129.38
2019-04-21T05:11:07.713Z,180.00
2019-04-21T05:12:48.130Z,225.00
2019-04-21T05:13:51.450Z,230.62
2019-04-21T05:14:46.162Z,247.50
2019-04-21T05:15:42.616Z,236.25
2019-04-21T05:17:43.290Z,281.25
2019-04-21T05:18:53.112Z,309.38
2019-04-21T05:20:03.547Z,365.62
2019-04-21T05:20:41.891Z,399.38
2019-04-21T05:21:59.532Z,348.75
2019-04-21T05:22:53.089Z,376.88
2019-04-21T05:23:38.359Z,416.25
2019-04-21T05:24:33.266Z,433.12
2019-04-21T05:25:27.768Z,466.88
2019-04-21T05:26:33.368Z,478.12
2019-04-21T05:27:32.085Z,562.50
2019-04-21T05:28:30.195Z,770.62
2019-04-21T05:29:36.388Z,843.75
2019-04-21T05:30:43.413Z,849.38
2019-04-21T05:31:43.056Z,894.38
2019-04-21T05:32:42.774Z,916.88
2019-04-21T05:33:38.398Z,900.00
2019-04-21T05:34:42.972Z,1018.12
2019-04-21T05:35:32.188Z,1271.25
2019-04-21T05:36:40.797Z,1389.38
2019-04-21T05:37:39.798Z,1434.38
2019-04-21T05:38:34.695Z,1434.38
2019-04-21T05:39:33.645Z,1456.88
2019-04-21T05:40:26.450Z,1440.00
2019-04-21T05:41:26.557Z,1462.50
2019-04-21T05:42:30.357Z,1575.00
2019-04-21T05:43:39.117Z,1614.38
2019-04-21T05:44:41.869Z,1659.38
2019-04-21T05:45:53.041Z,1693.12
2019-04-21T05:46:40.783Z,1710.00
2019-04-21T05:47:41.646Z,1760.62
2019-04-21T05:49:34.140Z,1850.62
2019-04-21T05:50:35.047Z,1912.50
2019-04-21T05:51:30.630Z,1946.25
2019-04-21T05:52:26.450Z,2013.75
2019-04-21T05:53:38.660Z,2058.75
2019-04-21T05:54:45.651Z,2086.88
2019-04-21T05:56:37.970Z,2137.50
2019-04-21T05:57:33.459Z,2193.75
2019-04-21T05:58:40.962Z,2238.75
2019-04-21T05:59:40.364Z,2205.00
2019-04-21T06:00:59.290Z,2131.88
2019-04-21T06:01:37.729Z,2120.62
2019-04-21T06:02:36.557Z,2160.00
2019-04-21T06:05:02.072Z,2272.50
2019-04-21T06:05:58.461Z,2379.38
2019-04-21T06:06:39.203Z,2334.38
2019-04-21T06:07:38.237Z,2345.62
2019-04-21T06:08:38.972Z,2362.50
2019-04-21T06:09:45.425Z,2497.50
2019-04-21T06:10:41.934Z,2553.75
2019-04-21T06:11:36.369Z,2587.50
2019-04-21T06:12:44.904Z,2452.50
2019-04-21T06:13:46.444Z,2463.75
2019-04-21T06:14:36.723Z,2615.62
2019-04-21T06:15:48.416Z,2576.25
2019-04-21T06:16:43.604Z,2452.50
2019-04-21T06:17:42.852Z,2565.00
2019-04-21T06:18:44.940Z,2728.12
2019-04-21T06:19:43.195Z,2778.75
2019-04-21T06:20:38.843Z,2756.25
2019-04-21T06:21:36.005Z,2784.38
2019-04-21T06:22:36.111Z,2812.50
2019-04-21T06:23:36.019Z,2896.88
2019-04-21T06:24:42.249Z,2896.88
2019-04-21T06:27:19.461Z,3054.38
2019-04-21T06:27:55.713Z,3082.50
2019-04-21T06:28:41.676Z,3009.38
2019-04-21T06:29:36.192Z,2964.38
2019-04-21T06:30:39.206Z,3009.38
2019-04-21T06:32:07.956Z,3076.88
2019-04-21T06:32:48.395Z,3015.00
2019-04-21T06:33:41.232Z,2970.00
2019-04-21T06:34:53.158Z,3127.50
2019-04-21T06:35:48.465Z,3240.00
2019-04-21T06:36:45.162Z,3211.88
2019-04-21T06:37:43.278Z,3172.50
2019-04-21T06:38:43.393Z,3279.38
2019-04-21T06:40:43.869Z,3380.62
2019-04-21T06:41:35.352Z,3335.62
2019-04-21T06:42:43.221Z,3335.62
2019-04-21T06:43:40.188Z,3358.12
2019-04-21T06:44:46.224Z,3358.12
2019-04-21T06:45:43.638Z,3448.12
2019-04-21T06:48:40.861Z,3678.75
2019-04-21T06:49:35.407Z,3673.12
2019-04-21T06:50:40.058Z,3690.00
2019-04-21T06:51:38.964Z,3538.12
2019-04-21T06:53:48.670Z,3313.12
2019-04-21T06:54:44.381Z,3470.62
2019-04-21T06:55:34.089Z,3555.00
2019-04-21T06:58:35.902Z,3375.00
2019-04-21T06:59:34.111Z,3436.88
2019-04-21T07:00:38.479Z,3549.38
2019-04-21T07:02:42.273Z,3757.50
2019-04-21T07:03:40.487Z,3712.50
2019-04-21T07:04:39.529Z,3763.12
2019-04-21T07:05:40.940Z,3870.00
2019-04-21T07:06:45.608Z,4016.25
2019-04-21T07:07:41.872Z,3915.00
2019-04-21T07:08:44.661Z,3830.62
2019-04-21T07:09:36.710Z,3690.00
2019-04-21T07:10:35.136Z,3459.38
2019-04-21T07:11:33.161Z,3341.25
2019-04-21T07:12:34.308Z,3465.00
2019-04-21T07:13:30.967Z,3853.12
2019-04-21T07:14:37.987Z,3993.75
2019-04-21T07:15:41.917Z,3903.75
2019-04-21T07:16:41.535Z,3909.38
2019-04-21T07:17:32.612Z,3892.50
2019-04-21T07:18:41.526Z,3813.75
2019-04-21T07:19:41.222Z,3943.12
2019-04-21T07:20:36.606Z,3898.12
2019-04-21T07:21:33.846Z,4027.50
2019-04-21T07:22:37.633Z,4044.38
2019-04-21T07:23:39.992Z,4027.50
2019-04-21T07:24:41.728Z,4078.12
2019-04-21T07:25:40.861Z,4263.75
2019-04-21T07:26:38.661Z,4151.25
2019-04-21T07:27:35.124Z,4123.12
2019-04-21T07:28:39.870Z,4055.62
2019-04-21T07:29:39.586Z,4151.25
2019-04-21T07:30:51.813Z,4207.50
2019-04-21T07:31:39.901Z,4224.38
2019-04-21T07:32:33.680Z,4353.75
2019-04-21T07:35:51.786Z,4100.62
2019-04-21T07:36:46.440Z,4151.25
2019-04-21T07:37:35.314Z,4258.12
2019-04-21T07:38:34.558Z,4235.62
2019-04-21T07:39:34.024Z,4365.00
2019-04-21T07:40:31.519Z,4505.62
2019-04-21T07:41:24.969Z,4556.25
2019-04-21T07:42:31.027Z,4398.75
2019-04-21T07:43:33.130Z,4224.38
2019-04-21T07:44:30.239Z,4342.50
2019-04-21T07:45:30.682Z,4612.50
2019-04-21T07:46:26.365Z,4708.12
2019-04-21T07:47:37.270Z,4770.00
2019-04-21T07:48:32.251Z,4685.62
2019-04-21T07:49:36.955Z,4635.00
2019-04-21T07:50:31.788Z,4522.50
2019-04-21T07:51:40.429Z,4398.75
2019-04-21T07:52:39.579Z,4303.12
2019-04-21T07:53:48.236Z,4545.00
2019-04-21T07:54:41.459Z,4730.62
2019-04-21T07:56:20.308Z,4235.62
2019-04-21T07:57:35.229Z,4336.88
2019-04-21T07:58:38.702Z,4522.50
2019-04-21T07:59:47.993Z,4651.88
2019-04-21T08:00:35.933Z,4651.88
2019-04-21T08:01:35.505Z,4713.75
2019-04-21T08:02:34.304Z,4635.00
2019-04-21T08:03:33.645Z,4432.50
2019-04-21T08:05:38.610Z,4668.75
2019-04-21T08:06:33.895Z,4590.00
2019-04-21T08:07:41.763Z,4590.00
2019-04-21T08:08:34.250Z,4578.75
2019-04-21T08:09:31.887Z,4601.25
2019-04-21T08:10:36.300Z,4674.38
2019-04-21T08:11:28.265Z,4747.50
2019-04-21T08:12:30.594Z,4691.25
2019-04-21T08:14:13.910Z,4606.88
2019-04-21T08:14:38.460Z,4567.50
2019-04-21T08:15:39.558Z,4561.88
2019-04-21T08:16:31.846Z,4691.25
2019-04-21T08:17:36.614Z,4820.62
2019-04-21T08:18:33.239Z,4888.12
2019-04-21T08:19:31.027Z,4921.88
2019-04-21T08:20:29.128Z,4860.00
2019-04-21T08:21:37.305Z,4696.88
2019-04-21T08:22:32.076Z,4449.38
2019-04-21T08:23:31.866Z,4820.62
2019-04-21T08:24:34.911Z,5068.12
2019-04-21T08:25:36.392Z,5394.38
2019-04-21T08:26:35.942Z,5703.75
2019-04-21T08:27:35.401Z,5535.00
2019-04-21T08:28:31.982Z,5253.75
2019-04-21T08:31:38.383Z,5056.88
2019-04-21T08:32:44.326Z,4972.50
2019-04-21T08:33:38.405Z,4972.50
2019-04-21T08:34:35.441Z,4955.62
2019-04-21T08:35:52.951Z,5034.38
2019-04-21T08:36:44.870Z,4927.50
2019-04-21T08:37:31.399Z,4848.75
2019-04-21T08:38:35.833Z,4820.62
2019-04-21T08:39:42.330Z,4831.88
2019-04-21T08:40:36.677Z,4933.12
2019-04-21T08:41:36.156Z,4876.88
2019-04-21T08:42:30.563Z,4618.12
2019-04-21T08:43:42.648Z,4421.25
2019-04-21T08:44:45.216Z,4404.38
2019-04-21T08:45:36.129Z,4533.75
2019-04-21T08:46:31.128Z,4708.12
2019-04-21T08:47:36.588Z,4741.88
2019-04-21T08:48:37.676Z,4556.25
2019-04-21T08:49:39.213Z,4370.62
2019-04-21T08:50:31.342Z,4303.12
2019-04-21T08:51:33.333Z,4573.12
2019-04-21T08:52:49.052Z,4826.25
2019-04-21T08:53:36.237Z,4775.62
2019-04-21T08:54:38.368Z,4713.75
2019-04-21T08:55:37.185Z,4635.00
2019-04-21T08:56:34.563Z,4516.88
2019-04-21T08:57:48.870Z,4488.75
2019-04-21T08:58:35.669Z,4421.25
2019-04-21T08:59:36.350Z,4072.50
2019-04-21T09:00:36.832Z,2998.12
2019-04-21T09:02:35.298Z,579.38
2019-04-21T09:03:33.020Z,540.00
2019-04-21T09:04:29.098Z,500.62
2019-04-21T09:05:34.294Z,500.62
2019-04-21T09:06:52.590Z,489.38
2019-04-21T09:07:41.697Z,489.38
2019-04-21T09:08:33.150Z,472.50
2019-04-21T09:09:36.071Z,466.88
2019-04-21T09:10:31.070Z,461.25
2019-04-21T09:11:29.499Z,461.25
2019-04-21T09:12:29.413Z,450.00
2019-04-21T09:13:32.130Z,444.38
2019-04-21T09:14:31.016Z,438.75
2019-04-21T09:15:32.084Z,427.50
2019-04-21T09:16:31.166Z,427.50
2019-04-21T09:17:26.290Z,421.88
2019-04-21T09:18:28.410Z,416.25
2019-04-21T09:19:40.104Z,416.25
2019-04-21T09:20:33.215Z,410.62
2019-04-21T09:21:31.344Z,405.00
2019-04-21T09:22:31.754Z,405.00
2019-04-21T09:23:36.458Z,399.38
2019-04-21T09:24:28.053Z,393.75
2019-04-21T09:25:38.632Z,393.75
2019-04-21T09:26:29.339Z,393.75
2019-04-21T09:27:27.391Z,393.75
2019-04-21T09:28:28.836Z,393.75
2019-04-21T09:29:21.760Z,388.12
2019-04-21T09:30:12.981Z,388.12
2019-04-21T09:31:12.232Z,388.12
2019-04-21T09:32:18.427Z,382.50
2019-04-21T09:33:12.394Z,382.50
2019-04-21T09:34:20.632Z,376.88
2019-04-21T09:35:14.808Z,376.88
2019-04-21T09:36:15.970Z,376.88
2019-04-21T09:37:24.405Z,371.25
2019-04-21T09:38:22.675Z,371.25
2019-04-21T09:39:16.543Z,365.62
2019-04-21T09:40:14.013Z,371.25
2019-04-21T09:41:16.128Z,365.62
2019-04-21T09:42:13.621Z,360.00
2019-04-21T09:43:13.453Z,354.38
2019-04-21T09:44:18.731Z,348.75
2019-04-21T09:45:13.873Z,343.12
2019-04-21T09:46:11.808Z,337.50
2019-04-21T09:47:12.588Z,331.88
2019-04-21T09:48:16.716Z,331.88
2019-04-21T09:49:16.519Z,331.88
2019-04-21T09:50:13.459Z,331.88
2019-04-21T09:51:11.205Z,326.25
2019-04-21T09:52:18.590Z,320.62
2019-04-21T09:53:20.434Z,320.62
2019-04-21T09:54:20.491Z,315.00
2019-04-21T09:55:17.111Z,315.00
2019-04-21T09:56:16.712Z,315.00
2019-04-21T09:57:24.304Z,315.00
2019-04-21T09:58:21.798Z,315.00
2019-04-21T09:59:20.662Z,309.38
2019-04-21T10:00:18.742Z,309.38
2019-04-21T10:01:20.588Z,303.75
2019-04-21T10:02:19.237Z,303.75
2019-04-21T10:03:15.728Z,303.75
2019-04-21T10:04:12.077Z,303.75
2019-04-21T10:05:12.294Z,309.38
2019-04-21T10:06:11.561Z,303.75
2019-04-21T10:07:23.597Z,303.75
2019-04-21T10:08:12.572Z,309.38
2019-04-21T10:09:14.419Z,303.75
2019-04-21T10:10:12.888Z,298.12
2019-04-21T10:11:11.886Z,298.12
2019-04-21T10:12:11.864Z,303.75
2019-04-21T10:13:10.932Z,298.12
2019-04-21T10:14:11.735Z,303.75
2019-04-21T10:15:10.964Z,309.38
2019-04-21T10:16:10.912Z,309.38
2019-04-21T10:17:11.027Z,303.75
2019-04-21T10:18:10.935Z,303.75
2019-04-21T10:19:11.219Z,309.38
2019-04-21T10:20:11.789Z,309.38
2019-04-21T10:21:10.858Z,309.38
2019-04-21T10:22:10.831Z,315.00
2019-04-21T10:23:11.390Z,315.00
2019-04-21T10:24:10.820Z,315.00
2019-04-21T10:25:10.809Z,315.00
2019-04-21T10:26:10.789Z,315.00
2019-04-21T10:27:12.888Z,315.00
2019-04-21T10:28:11.012Z,315.00
2019-04-21T10:29:17.001Z,315.00
2019-04-21T10:30:12.116Z,309.38
2019-04-21T10:31:11.021Z,309.38
2019-04-21T10:32:11.348Z,309.38
2019-04-21T10:33:10.717Z,303.75
2019-04-21T10:34:11.514Z,298.12
2019-04-21T10:35:10.996Z,303.75
2019-04-21T10:36:11.042Z,303.75
2019-04-21T10:37:11.214Z,303.75
2019-04-21T10:38:19.818Z,303.75
2019-04-21T10:39:11.722Z,298.12
2019-04-21T10:40:11.757Z,292.50
2019-04-21T10:41:11.738Z,298.12
2019-04-21T10:42:11.302Z,292.50
2019-04-21T10:43:13.462Z,292.50
2019-04-21T10:44:11.439Z,292.50
2019-04-21T10:45:10.888Z,292.50
2019-04-21T10:46:10.816Z,292.50
2019-04-21T10:47:10.962Z,292.50
2019-04-21T10:48:10.912Z,286.88
2019-04-21T10:49:10.831Z,286.88
2019-04-21T10:50:10.890Z,286.88
2019-04-21T10:51:10.765Z,286.88
2019-04-21T10:52:10.952Z,286.88
2019-04-21T10:53:11.142Z,286.88
2019-04-21T10:54:11.663Z,281.25
2019-04-21T10:55:30.973Z,281.25
2019-04-21T10:56:21.124Z,281.25
2019-04-21T10:57:12.500Z,281.25
2019-04-21T10:58:10.816Z,281.25
2019-04-21T10:59:10.429Z,275.62
2019-04-21T11:00:12.045Z,275.62
2019-04-21T11:01:10.706Z,270.00
2019-04-21T11:02:10.636Z,270.00
2019-04-21T11:03:10.901Z,270.00
2019-04-21T11:04:17.015Z,270.00
2019-04-21T11:05:12.500Z,270.00
2019-04-21T11:06:10.639Z,270.00
2019-04-21T11:07:14.534Z,264.38
2019-04-21T11:08:22.616Z,264.38
2019-04-21T11:09:11.325Z,264.38
2019-04-21T11:10:11.633Z,258.75
2019-04-21T11:11:10.315Z,264.38
2019-04-21T11:12:10.338Z,258.75
2019-04-21T11:13:10.428Z,258.75
2019-04-21T11:14:10.590Z,258.75
2019-04-21T11:15:11.444Z,258.75
2019-04-21T11:16:10.964Z,258.75
2019-04-21T11:17:10.273Z,258.75
2019-04-21T11:18:10.299Z,258.75
2019-04-21T11:19:11.631Z,253.12
2019-04-21T11:20:10.835Z,253.12
2019-04-21T11:21:11.198Z,253.12
2019-04-21T11:22:10.467Z,253.12
2019-04-21T11:23:10.223Z,247.50
2019-04-21T11:24:10.327Z,247.50
2019-04-21T11:25:11.192Z,247.50
2019-04-21T11:26:10.160Z,247.50
2019-04-21T11:27:10.932Z,247.50
2019-04-21T11:28:11.164Z,247.50
2019-04-21T11:29:10.809Z,247.50
2019-04-21T11:30:11.655Z,247.50
2019-04-21T11:31:11.105Z,241.88
2019-04-21T11:32:10.098Z,241.88
2019-04-21T11:33:11.244Z,241.88
2019-04-21T11:34:11.214Z,241.88
2019-04-21T11:35:10.047Z,241.88
2019-04-21T11:36:11.164Z,241.88
2019-04-21T11:37:10.290Z,241.88
2019-04-21T11:38:16.945Z,241.88
2019-04-21T11:39:23.597Z,241.88
2019-04-21T11:40:14.964Z,241.88
2019-04-21T11:41:11.950Z,236.25
2019-04-21T11:42:10.113Z,236.25
2019-04-21T11:43:09.965Z,236.25
2019-04-21T11:44:09.955Z,236.25
2019-04-21T11:45:10.510Z,236.25
2019-04-21T11:46:10.827Z,236.25
2019-04-21T11:47:10.265Z,230.62
2019-04-21T11:48:10.469Z,230.62
2019-04-21T11:49:10.386Z,230.62
2019-04-21T11:50:10.887Z,230.62
2019-04-21T11:51:11.028Z,230.62
2019-04-21T11:52:11.223Z,230.62
2019-04-21T11:53:10.650Z,230.62
2019-04-21T11:54:10.843Z,230.62
2019-04-21T11:55:11.010Z,230.62
2019-04-21T11:56:09.831Z,230.62
2019-04-21T11:57:16.050Z,230.62
2019-04-21T11:58:11.902Z,230.62
2019-04-21T11:59:10.062Z,230.62
2019-04-21T12:00:09.790Z,230.62
2019-04-21T12:01:09.771Z,230.62
2019-04-21T12:02:09.824Z,230.62
2019-04-21T12:03:12.395Z,225.00
2019-04-21T12:04:11.735Z,225.00
2019-04-21T12:05:09.787Z,225.00
2019-04-21T12:06:11.060Z,225.00
2019-04-21T12:07:09.718Z,225.00
2019-04-21T12:08:21.198Z,225.00
2019-04-21T12:09:11.764Z,225.00
2019-04-21T12:10:09.677Z,225.00
2019-04-21T12:11:09.695Z,219.38
2019-04-21T12:12:09.660Z,219.38
2019-04-21T12:13:10.080Z,219.38
2019-04-21T12:14:09.980Z,219.38
2019-04-21T12:15:11.237Z,219.38
2019-04-21T12:16:10.660Z,219.38
2019-04-21T12:17:10.038Z,219.38
2019-04-21T12:18:10.044Z,219.38
2019-04-21T12:19:09.597Z,219.38
2019-04-21T12:20:10.637Z,219.38
2019-04-21T12:21:09.562Z,213.75
2019-04-21T12:22:18.213Z,213.75
2019-04-21T12:23:10.537Z,213.75
2019-04-21T12:24:09.545Z,213.75
2019-04-21T12:25:09.526Z,213.75
2019-04-21T12:26:09.513Z,213.75
2019-04-21T12:27:09.821Z,213.75
2019-04-21T12:28:10.030Z,213.75
2019-04-21T12:29:10.067Z,213.75
2019-04-21T12:30:09.584Z,213.75
2019-04-21T12:31:09.685Z,213.75
2019-04-21T12:32:09.763Z,213.75
2019-04-21T12:33:09.876Z,213.75
2019-04-21T12:34:09.866Z,213.75
2019-04-21T12:35:10.071Z,213.75
2019-04-21T12:36:09.536Z,213.75
2019-04-21T12:37:10.668Z,213.75
2019-04-21T12:38:09.378Z,213.75
2019-04-21T12:39:10.702Z,213.75
2019-04-21T12:40:10.512Z,208.12
2019-04-21T12:41:10.676Z,208.12
2019-04-21T12:42:09.346Z,208.12
2019-04-21T12:43:10.480Z,208.12
2019-04-21T12:44:10.724Z,208.12
2019-04-21T12:45:09.786Z,208.12
2019-04-21T12:46:09.724Z,208.12
2019-04-21T12:47:10.066Z,208.12
2019-04-21T12:48:10.452Z,208.12
2019-04-21T12:49:09.775Z,208.12
2019-04-21T12:50:09.253Z,202.50
2019-04-21T12:51:10.141Z,202.50
2019-04-21T12:52:09.418Z,202.50
2019-04-21T12:53:09.538Z,202.50
2019-04-21T12:54:09.849Z,202.50
2019-04-21T12:55:09.503Z,202.50
2019-04-21T12:56:09.492Z,202.50
2019-04-21T12:57:09.658Z,202.50
2019-04-21T12:58:09.167Z,202.50
2019-04-21T12:59:10.017Z,202.50
2019-04-21T13:00:09.156Z,202.50
2019-04-21T13:01:09.366Z,202.50
2019-04-21T13:02:09.590Z,202.50
2019-04-21T13:03:09.912Z,202.50
2019-04-21T13:04:10.132Z,202.50
2019-04-21T13:05:09.506Z,202.50
2019-04-21T13:06:09.968Z,202.50
2019-04-21T13:07:09.821Z,202.50
2019-04-21T13:08:09.302Z,202.50
2019-04-21T13:09:12.362Z,202.50
2019-04-21T13:10:10.507Z,202.50
2019-04-21T13:11:09.556Z,202.50
2019-04-21T13:12:09.048Z,202.50
2019-04-21T13:13:10.061Z,196.88
2019-04-21T13:14:08.980Z,196.88
2019-04-21T13:15:08.978Z,196.88
2019-04-21T13:16:09.652Z,196.88
2019-04-21T13:17:09.847Z,196.88
2019-04-21T13:18:10.095Z,196.88
2019-04-21T13:19:09.339Z,196.88
2019-04-21T13:20:09.547Z,196.88
2019-04-21T13:21:09.910Z,196.88
2019-04-21T13:22:09.904Z,196.88
2019-04-21T13:23:10.066Z,196.88
2019-04-21T13:24:08.895Z,196.88
2019-04-21T13:25:09.734Z,196.88
2019-04-21T13:26:09.747Z,196.88
2019-04-21T13:27:09.455Z,196.88
2019-04-21T13:28:08.845Z,196.88
2019-04-21T13:29:10.147Z,196.88
2019-04-21T13:30:08.831Z,191.25
2019-04-21T13:31:08.815Z,191.25
2019-04-21T13:32:09.361Z,191.25
2019-04-21T13:33:09.203Z,191.25
2019-04-21T13:34:10.288Z,191.25
2019-04-21T13:35:10.719Z,191.25
2019-04-21T13:36:09.684Z,191.25
2019-04-21T13:37:09.734Z,191.25
2019-04-21T13:38:19.866Z,191.25
2019-04-21T13:39:38.250Z,191.25
2019-04-21T13:40:29.201Z,191.25
2019-04-21T13:41:23.176Z,191.25
2019-04-21T13:42:19.692Z,191.25
2019-04-21T13:43:10.686Z,191.25
2019-04-21T13:44:08.960Z,191.25
2019-04-21T13:45:10.200Z,191.25
2019-04-21T13:46:09.885Z,191.25
2019-04-21T13:47:08.639Z,191.25
2019-04-21T13:48:08.629Z,191.25
2019-04-21T13:49:09.493Z,191.25
2019-04-21T13:50:08.880Z,185.62
2019-04-21T13:51:09.135Z,185.62
2019-04-21T13:52:08.912Z,185.62
2019-04-21T13:53:09.033Z,185.62